Time;durP1;ratioP1;P1;durP2;ratioP2;P2;SDS_P1;SDS_P2;PMS_P1;PMS_P2;Temp;Humidity;BMP_temperature;BMP_pressure;BME280_temperature;BME280_humidity;BME280_pressure;Samples;Min_cycle;Max_cycle;Signal;HPM_P1;HPM_P2
2023/07/01 00:01:47;;;;;;;6.30;3.45;;;;;;;16.73;83.14;100831.91;6110856;19;20022;-73
2023/07/01 00:03:52;;;;;;;7.63;4.03;;;;;;;16.67;83.31;100835.81;6113761;19;20018;-73
2023/07/01 00:06:01;;;;;;;6.30;4.03;;;;;;;16.57;83.80;100826.75;6113126;19;20014;-71
2023/07/01 00:08:06;;;;;;;7.90;4.32;;;;;;;16.54;84.67;100824.31;6111546;19;20010;-71
2023/07/01 00:10:12;;;;;;;11.40;4.50;;;;;;;16.54;84.96;100815.50;6111896;19;20036;-72
2023/07/01 00:12:18;;;;;;;14.88;4.63;;;;;;;16.48;85.96;100822.03;6112155;19;20022;-73
2023/07/01 00:14:23;;;;;;;9.57;4.20;;;;;;;16.42;86.16;100811.84;6110798;19;20038;-72
2023/07/01 00:16:28;;;;;;;6.97;3.95;;;;;;;16.45;86.22;100814.28;6113258;19;20057;-72
2023/07/01 00:18:36;;;;;;;10.60;5.40;;;;;;;16.40;85.63;100808.44;6113350;19;20086;-72
2023/07/01 00:20:42;;;;;;;10.45;4.20;;;;;;;16.40;85.72;100813.72;6111598;19;20019;-73
2023/07/01 00:22:47;;;;;;;10.07;4.32;;;;;;;16.41;85.64;100794.25;6112430;19;20055;-73
2023/07/01 00:24:53;;;;;;;11.82;4.53;;;;;;;16.45;86.26;100790.41;6114276;19;20014;-75
2023/07/01 00:26:58;;;;;;;8.65;4.53;;;;;;;16.46;86.92;100792.13;6112649;19;20030;-74
2023/07/01 00:29:03;;;;;;;10.95;4.80;;;;;;;16.32;87.42;100790.38;6111836;19;20358;-75
2023/07/01 00:31:08;;;;;;;9.35;4.47;;;;;;;16.33;87.43;100781.47;6110433;19;20051;-74
2023/07/01 00:33:15;;;;;;;11.38;5.20;;;;;;;16.19;88.84;100771.78;6112262;19;20017;-74
2023/07/01 00:35:22;;;;;;;12.55;5.20;;;;;;;16.21;89.29;100775.16;6110133;19;20432;-74
2023/07/01 00:37:30;;;;;;;12.57;5.45;;;;;;;16.12;90.11;100773.13;6110815;19;20081;-74
2023/07/01 00:39:35;;;;;;;12.13;5.43;;;;;;;16.22;90.34;100768.91;6111675;19;20042;-76
2023/07/01 00:41:37;;;;;;;11.68;5.97;;;;;;;16.10;91.22;100763.56;6110034;19;20003;-75
2023/07/01 00:43:43;;;;;;;15.90;7.38;;;;;;;16.14;91.33;100768.56;6106004;19;20349;-74
2023/07/01 00:45:48;;;;;;;11.05;6.40;;;;;;;16.11;91.60;100770.56;6109067;19;20029;-74
2023/07/01 00:47:54;;;;;;;12.00;6.20;;;;;;;16.07;91.82;100764.59;6110804;19;20476;-74
2023/07/01 00:50:00;;;;;;;12.50;6.32;;;;;;;16.07;91.59;100758.47;6111208;19;20407;-72
2023/07/01 00:52:10;;;;;;;13.80;6.53;;;;;;;16.12;91.87;100765.16;6109334;19;20360;-72
2023/07/01 00:54:15;;;;;;;15.48;7.15;;;;;;;16.10;91.67;100759.09;6110835;19;20498;-72
2023/07/01 00:56:20;;;;;;;14.48;7.20;;;;;;;16.03;91.57;100752.50;6108657;19;20015;-72
2023/07/01 00:58:27;;;;;;;12.85;6.95;;;;;;;16.06;91.04;100749.66;6110816;19;20434;-72
2023/07/01 01:00:36;;;;;;;16.38;7.55;;;;;;;16.08;90.77;100745.09;6109895;19;20006;-72
2023/07/01 01:02:51;;;;;;;13.63;7.43;;;;;;;16.15;90.69;100746.41;6109646;19;20089;-71
2023/07/01 01:05:10;;;;;;;16.55;7.32;;;;;;;16.12;90.82;100749.25;6110381;19;20010;-73
2023/07/01 01:07:25;;;;;;;18.15;6.95;;;;;;;16.12;91.11;100738.66;6110384;19;20043;-72
2023/07/01 01:09:36;;;;;;;14.23;6.88;;;;;;;16.11;91.46;100738.75;6109403;19;20019;-72
2023/07/01 01:11:46;;;;;;;11.77;6.90;;;;;;;16.15;90.74;100735.81;6109402;19;20011;-72
2023/07/01 01:13:52;;;;;;;15.25;7.65;;;;;;;16.13;91.55;100732.38;6109050;19;20037;-73
2023/07/01 01:16:00;;;;;;;12.80;6.97;;;;;;;16.15;91.52;100725.19;6109936;19;20025;-72
2023/07/01 01:18:07;;;;;;;25.33;8.30;;;;;;;16.10;92.24;100724.66;6110561;19;20010;-73
2023/07/01 01:20:16;;;;;;;14.05;7.40;;;;;;;16.09;92.17;100719.44;6110853;19;20023;-72
2023/07/01 01:22:28;;;;;;;13.57;7.55;;;;;;;16.13;92.32;100721.78;6110411;19;20035;-73
2023/07/01 01:24:38;;;;;;;17.73;7.20;;;;;;;16.08;92.65;100710.63;6110742;19;20135;-73
2023/07/01 01:26:47;;;;;;;14.90;8.27;;;;;;;16.14;92.61;100712.03;6109619;19;20463;-73
2023/07/01 01:28:56;;;;;;;15.73;7.35;;;;;;;16.18;92.53;100706.44;6110760;19;20023;-71
2023/07/01 01:31:04;;;;;;;15.55;7.30;;;;;;;16.09;93.01;100709.69;6110837;19;20011;-73
2023/07/01 01:33:10;;;;;;;13.73;7.93;;;;;;;16.15;93.79;100692.53;6109873;19;20027;-74
2023/07/01 01:35:15;;;;;;;16.92;7.50;;;;;;;16.11;93.39;100686.56;6110002;19;20093;-73
2023/07/01 01:37:31;;;;;;;14.77;7.97;;;;;;;16.15;93.28;100682.78;6109844;19;20420;-71
2023/07/01 01:39:45;;;;;;;15.38;8.05;;;;;;;16.10;93.61;100679.59;6110878;19;20011;-74
2023/07/01 01:41:55;;;;;;;16.02;8.38;;;;;;;16.12;93.39;100674.19;6108155;19;20033;-72
2023/07/01 01:44:10;;;;;;;16.73;8.27;;;;;;;16.11;93.75;100677.78;6107341;19;22387;-72
2023/07/01 01:46:16;;;;;;;15.73;7.20;;;;;;;16.07;94.07;100671.84;6108995;19;20352;-72
2023/07/01 01:48:21;;;;;;;17.73;7.78;;;;;;;16.12;94.29;100668.88;6109728;19;20077;-73
2023/07/01 01:50:28;;;;;;;16.27;8.30;;;;;;;16.06;94.85;100667.50;6110251;19;20011;-73
2023/07/01 01:52:35;;;;;;;13.98;8.15;;;;;;;16.07;95.07;100665.69;6109446;19;20125;-72
2023/07/01 01:54:42;;;;;;;16.77;8.27;;;;;;;16.10;96.43;100674.28;6113351;19;20041;-74
2023/07/01 01:56:47;;;;;;;15.50;7.72;;;;;;;16.11;96.74;100661.88;6116111;19;20479;-74
2023/07/01 01:58:52;;;;;;;18.67;8.27;;;;;;;16.01;97.34;100670.44;6117379;19;20016;-74
2023/07/01 02:01:02;;;;;;;17.67;7.88;;;;;;;16.06;97.02;100666.63;6116951;19;20341;-75
2023/07/01 02:03:07;;;;;;;15.80;8.48;;;;;;;16.03;97.80;100662.38;6116681;19;20025;-73
2023/07/01 02:05:13;;;;;;;18.23;9.02;;;;;;;16.09;98.03;100661.13;6115241;19;20013;-74
2023/07/01 02:07:19;;;;;;;18.90;9.20;;;;;;;16.15;97.11;100655.41;6116133;19;20503;-75
2023/07/01 02:09:24;;;;;;;16.27;7.97;;;;;;;16.18;98.08;100664.00;6115676;19;20345;-73
2023/07/01 02:11:32;;;;;;;17.52;9.43;;;;;;;16.11;96.88;100651.25;6112383;19;20094;-72
2023/07/01 02:13:37;;;;;;;17.27;8.82;;;;;;;16.16;96.80;100657.94;6115186;19;20504;-74
2023/07/01 02:15:44;;;;;;;19.30;9.30;;;;;;;16.18;96.41;100648.09;6112498;19;20094;-75
2023/07/01 02:17:53;;;;;;;14.32;8.02;;;;;;;16.21;96.42;100647.88;6114685;19;20102;-74
2023/07/01 02:19:59;;;;;;;19.45;8.48;;;;;;;16.27;96.10;100643.13;6115331;19;20044;-74
2023/07/01 02:22:04;;;;;;;17.98;8.63;;;;;;;16.31;95.92;100644.63;6115256;19;20379;-72
2023/07/01 02:24:12;;;;;;;16.35;9.80;;;;;;;16.22;95.02;100640.81;6115861;19;20042;-71
2023/07/01 02:26:17;;;;;;;15.68;9.20;;;;;;;16.27;94.84;100638.66;6114658;19;20502;-71
2023/07/01 02:28:22;;;;;;;20.65;9.82;;;;;;;16.29;94.87;100641.22;6115123;19;20015;-72
2023/07/01 02:30:28;;;;;;;16.17;8.43;;;;;;;16.30;94.85;100637.63;6113293;19;20010;-75
2023/07/01 02:32:33;;;;;;;20.50;8.57;;;;;;;16.38;94.43;100625.56;6116029;19;20006;-74
2023/07/01 02:34:41;;;;;;;15.20;7.53;;;;;;;16.38;94.37;100625.56;6116473;19;20014;-72
2023/07/01 02:36:46;;;;;;;14.52;7.47;;;;;;;16.40;93.91;100628.09;6115366;19;20412;-73
2023/07/01 02:38:51;;;;;;;15.40;7.90;;;;;;;16.44;93.61;100618.97;6114345;19;20035;-72
2023/07/01 02:40:56;;;;;;;18.45;9.13;;;;;;;16.48;93.64;100632.88;6115708;19;20011;-72
2023/07/01 02:43:04;;;;;;;16.25;9.13;;;;;;;16.40;94.56;100628.09;6114838;19;20090;-71
2023/07/01 02:45:10;;;;;;;14.50;7.78;;;;;;;16.44;95.15;100625.13;6114351;19;20017;-74
2023/07/01 02:47:15;;;;;;;13.48;7.53;;;;;;;16.43;95.52;100617.28;6114568;19;20022;-73
2023/07/01 02:49:20;;;;;;;13.48;8.30;;;;;;;16.36;96.12;100627.47;6115023;19;20023;-74
2023/07/01 02:51:28;;;;;;;19.92;8.70;;;;;;;16.37;96.90;100617.69;6111872;19;20015;-73
2023/07/01 02:53:33;;;;;;;15.10;8.95;;;;;;;16.35;96.77;100609.84;6114390;19;20066;-73
2023/07/01 02:55:38;;;;;;;15.55;9.10;;;;;;;16.36;96.88;100616.00;6113507;19;20075;-73
2023/07/01 02:57:44;;;;;;;17.10;9.05;;;;;;;16.28;97.43;100613.88;6111927;19;20022;-73
2023/07/01 02:59:52;;;;;;;14.27;7.90;;;;;;;16.29;97.31;100615.56;6113704;19;20517;-71
2023/07/01 03:02:00;;;;;;;15.00;8.13;;;;;;;16.26;98.17;100604.31;6114070;19;20081;-73
2023/07/01 03:04:08;;;;;;;17.65;8.88;;;;;;;16.23;98.77;100610.69;6112721;19;20011;-73
2023/07/01 03:06:25;;;;;;;21.15;9.25;;;;;;;16.24;98.84;100613.25;6112194;19;20058;-73
2023/07/01 03:08:32;;;;;;;13.40;8.10;;;;;;;16.20;99.50;100606.44;6112310;19;20014;-73
2023/07/01 03:10:37;;;;;;;14.95;8.50;;;;;;;16.22;100.00;100604.53;6114462;19;20361;-72
2023/07/01 03:12:43;;;;;;;17.55;8.65;;;;;;;16.22;99.99;100604.53;6113544;19;20042;-73
2023/07/01 03:14:48;;;;;;;16.65;8.45;;;;;;;16.14;100.00;100595.38;6112824;19;20002;-72
2023/07/01 03:16:54;;;;;;;16.45;8.02;;;;;;;16.10;100.00;100589.44;6113982;19;20018;-73
2023/07/01 03:19:05;;;;;;;14.57;8.57;;;;;;;16.12;100.00;100592.84;6112459;19;20475;-73
2023/07/01 03:21:10;;;;;;;18.55;8.70;;;;;;;16.18;100.00;100592.44;6112199;19;20014;-75
2023/07/01 03:23:15;;;;;;;16.23;9.13;;;;;;;16.17;100.00;100581.94;6113436;19;20496;-74
2023/07/01 03:25:23;;;;;;;14.90;8.13;;;;;;;16.19;100.00;100572.06;6113455;19;20021;-74
2023/07/01 03:27:31;;;;;;;18.85;9.38;;;;;;;16.17;100.00;100574.84;6113315;19;20010;-74
2023/07/01 03:29:36;;;;;;;17.38;9.48;;;;;;;16.17;100.00;100566.03;6111609;19;20030;-74
2023/07/01 03:31:42;;;;;;;20.35;9.63;;;;;;;16.15;100.00;100571.44;6110612;19;20077;-74
2023/07/01 03:33:47;;;;;;;16.83;9.68;;;;;;;16.19;100.00;100572.06;6114445;19;20031;-74
2023/07/01 03:35:52;;;;;;;18.38;9.85;;;;;;;16.20;100.00;100568.47;6112882;19;20014;-75
2023/07/01 03:38:00;;;;;;;17.58;10.80;;;;;;;16.15;100.00;100565.28;6109363;19;20082;-74
2023/07/01 03:40:10;;;;;;;20.02;11.13;;;;;;;16.16;100.00;100556.38;6112949;19;20054;-73
2023/07/01 03:42:17;;;;;;;18.63;9.38;;;;;;;16.21;100.00;100560.41;6111829;19;20471;-74
2023/07/01 03:44:22;;;;;;;17.27;10.25;;;;;;;16.21;100.00;100563.06;6110892;19;20024;-74
2023/07/01 03:46:33;;;;;;;19.45;9.18;;;;;;;16.21;100.00;100560.41;6113735;19;20447;-74
2023/07/01 03:48:38;;;;;;;19.58;9.60;;;;;;;16.26;100.00;100552.13;6112670;19;20531;-74
2023/07/01 03:50:44;;;;;;;16.00;9.13;;;;;;;16.26;100.00;100559.25;6110907;19;20456;-76
2023/07/01 03:52:50;;;;;;;18.35;10.13;;;;;;;16.32;100.00;100551.69;6109082;19;20023;-74
2023/07/01 03:54:56;;;;;;;18.17;9.88;;;;;;;16.25;100.00;100545.16;6113279;19;20018;-74
2023/07/01 03:57:03;;;;;;;19.35;9.57;;;;;;;16.23;100.00;100534.63;6113349;19;20078;-75
2023/07/01 03:59:11;;;;;;;16.73;9.10;;;;;;;16.26;100.00;100533.56;6111142;19;20011;-75
2023/07/01 04:01:16;;;;;;;19.50;9.98;;;;;;;16.36;100.00;100537.28;6112625;19;20034;-75
2023/07/01 04:03:23;;;;;;;20.25;10.30;;;;;;;16.34;100.00;100533.03;6111131;19;20048;-74
2023/07/01 04:05:29;;;;;;;18.60;9.90;;;;;;;16.28;100.00;100534.31;6111654;19;20021;-74
2023/07/01 04:07:34;;;;;;;16.45;9.20;;;;;;;16.32;100.00;100540.25;6111412;19;20021;-74
2023/07/01 04:09:40;;;;;;;19.42;11.02;;;;;;;16.33;100.00;100532.22;6108316;19;20369;-74
2023/07/01 04:11:45;;;;;;;18.92;9.95;;;;;;;16.35;100.00;100529.44;6108263;19;20071;-75
2023/07/01 04:13:51;;;;;;;20.23;10.85;;;;;;;16.33;100.00;100531.38;6111890;19;20017;-77
2023/07/01 04:15:59;;;;;;;20.73;10.00;;;;;;;16.37;100.00;100527.53;6111530;19;20014;-75
2023/07/01 04:18:04;;;;;;;18.15;9.85;;;;;;;16.31;100.00;100518.19;6109530;19;20013;-76
2023/07/01 04:20:11;;;;;;;21.00;11.48;;;;;;;16.32;100.00;100530.50;6111299;19;20038;-74
2023/07/01 04:22:16;;;;;;;22.35;12.50;;;;;;;16.33;100.00;100521.59;6110673;19;20098;-74
2023/07/01 04:24:21;;;;;;;19.73;10.23;;;;;;;16.35;100.00;100517.03;6110921;19;20027;-75
2023/07/01 04:26:29;;;;;;;19.58;10.70;;;;;;;16.42;100.00;100528.06;6110413;19;20089;-74
2023/07/01 04:28:35;;;;;;;16.23;9.40;;;;;;;16.43;100.00;100527.13;6108200;19;20010;-74
2023/07/01 04:30:40;;;;;;;20.55;10.65;;;;;;;16.40;100.00;100517.56;6110997;19;20015;-76
2023/07/01 04:32:47;;;;;;;19.33;11.00;;;;;;;16.44;100.00;100512.88;6110560;19;20082;-75
2023/07/01 04:34:53;;;;;;;20.95;11.68;;;;;;;16.36;100.00;100520.53;6110785;19;20507;-75
2023/07/01 04:36:58;;;;;;;19.70;12.00;;;;;;;16.42;100.00;100509.50;6104198;19;20483;-73
2023/07/01 04:39:03;;;;;;;21.55;13.00;;;;;;;16.44;100.00;100512.88;6111405;19;20006;-75
2023/07/01 04:41:08;;;;;;;24.08;12.52;;;;;;;16.50;100.00;100512.44;6111292;19;20090;-76
2023/07/01 04:43:14;;;;;;;29.10;13.90;;;;;;;16.45;100.00;100504.81;6111441;19;20391;-75
2023/07/01 04:45:21;;;;;;;29.60;13.65;;;;;;;16.44;100.00;100513.72;6110920;19;20097;-74
2023/07/01 04:47:27;;;;;;;21.40;13.00;;;;;;;16.50;100.00;100512.44;6110251;19;20019;-73
2023/07/01 04:49:37;;;;;;;20.83;11.73;;;;;;;16.52;100.00;100515.00;6111018;19;20354;-73
2023/07/01 04:51:43;;;;;;;22.60;12.93;;;;;;;16.53;100.00;100508.72;6107188;19;20015;-74
2023/07/01 04:53:48;;;;;;;20.27;11.57;;;;;;;16.50;100.00;100509.78;6108560;19;20026;-73
2023/07/01 04:55:53;;;;;;;22.20;11.80;;;;;;;16.57;100.00;100503.09;6110920;19;20469;-74
2023/07/01 04:57:58;;;;;;;22.40;11.65;;;;;;;16.56;100.00;100509.38;6110976;19;20014;-75
2023/07/01 05:00:10;;;;;;;23.30;12.52;;;;;;;16.66;100.00;100501.59;6112739;19;20015;-75
2023/07/01 05:02:15;;;;;;;22.58;12.27;;;;;;;16.66;100.00;100497.13;6109107;19;20098;-74
2023/07/01 05:04:22;;;;;;;19.92;10.60;;;;;;;16.67;100.00;100493.53;6108915;19;20014;-74
2023/07/01 05:06:33;;;;;;;19.88;11.10;;;;;;;16.71;100.00;100495.97;6109609;19;20076;-74
2023/07/01 05:08:38;;;;;;;19.73;10.05;;;;;;;16.67;100.00;100496.19;6109756;19;20018;-75
2023/07/01 05:10:45;;;;;;;16.98;10.32;;;;;;;16.71;100.00;100498.63;6110147;19;20022;-73
2023/07/01 05:12:51;;;;;;;22.08;11.65;;;;;;;16.71;100.00;100488.00;6109258;19;20017;-73
2023/07/01 05:14:58;;;;;;;18.95;11.20;;;;;;;16.76;100.00;100483.22;6109043;19;20372;-73
2023/07/01 05:17:06;;;;;;;21.92;12.73;;;;;;;16.74;100.00;100487.78;6109963;19;20011;-72
2023/07/01 05:19:12;;;;;;;20.25;11.63;;;;;;;16.75;100.00;100482.38;6110999;19;20448;-73
2023/07/01 05:21:18;;;;;;;19.60;10.93;;;;;;;16.77;100.00;100482.25;6110336;19;20023;-74
2023/07/01 05:23:25;;;;;;;16.17;9.02;;;;;;;16.80;100.00;100488.22;6110791;19;20022;-74
2023/07/01 05:25:33;;;;;;;18.05;9.40;;;;;;;16.86;100.00;100486.94;6111046;19;20038;-73
2023/07/01 05:27:38;;;;;;;16.17;8.88;;;;;;;16.78;100.00;100484.00;6110415;19;20007;-74
2023/07/01 05:29:43;;;;;;;18.23;9.38;;;;;;;16.78;100.00;100490.16;6113537;19;20029;-75
2023/07/01 05:31:49;;;;;;;14.68;7.55;;;;;;;16.75;100.00;100478.88;6115744;19;20021;-73
2023/07/01 05:33:54;;;;;;;15.23;8.43;;;;;;;16.75;100.00;100490.34;6114663;19;20042;-74
2023/07/01 05:35:59;;;;;;;15.95;9.10;;;;;;;16.81;100.00;100486.44;6114418;19;20010;-73
2023/07/01 05:38:10;;;;;;;14.73;7.78;;;;;;;16.88;100.00;100483.22;6115106;19;20022;-74
2023/07/01 05:40:18;;;;;;;15.13;8.43;;;;;;;16.81;100.00;100478.47;6114241;19;20622;-74
2023/07/01 05:42:23;;;;;;;14.65;7.55;;;;;;;16.79;100.00;100480.38;6114813;19;20676;-74
2023/07/01 05:44:30;;;;;;;14.48;8.05;;;;;;;16.79;100.00;100483.03;6115612;19;20014;-73
2023/07/01 05:46:35;;;;;;;15.38;8.40;;;;;;;16.78;100.00;100487.50;6116584;19;20017;-75
2023/07/01 05:48:41;;;;;;;15.35;8.55;;;;;;;16.84;100.00;100480.88;6113734;19;20409;-75
2023/07/01 05:50:46;;;;;;;17.90;9.05;;;;;;;16.81;100.00;100481.97;6115735;19;20092;-77
2023/07/01 05:52:52;;;;;;;17.00;8.68;;;;;;;16.79;100.00;100483.03;6114263;19;20018;-75
2023/07/01 05:54:59;;;;;;;15.15;7.78;;;;;;;16.84;100.00;100475.59;6116506;19;20026;-75
2023/07/01 05:57:07;;;;;;;16.50;7.82;;;;;;;16.88;100.00;100477.06;6113447;19;20043;-73
2023/07/01 05:59:13;;;;;;;17.10;8.45;;;;;;;16.89;100.00;100476.09;6116202;19;20042;-74
2023/07/01 06:01:18;;;;;;;17.70;8.57;;;;;;;16.85;100.00;100480.78;6114583;19;20471;-73
2023/07/01 06:03:23;;;;;;;18.38;8.48;;;;;;;16.90;100.00;100475.13;6115370;19;20094;-73
2023/07/01 06:05:28;;;;;;;17.63;8.45;;;;;;;16.89;100.00;100479.59;6114263;19;20367;-72
2023/07/01 06:07:33;;;;;;;17.63;8.00;;;;;;;16.85;100.00;100480.78;6115286;19;20038;-73
2023/07/01 06:09:38;;;;;;;14.02;7.95;;;;;;;16.91;100.00;100482.16;6115106;19;20046;-73
2023/07/01 06:11:44;;;;;;;18.77;9.13;;;;;;;16.88;100.00;100477.06;6115559;19;20011;-73
2023/07/01 06:13:52;;;;;;;14.82;9.07;;;;;;;16.95;100.00;100478.28;6116084;19;20018;-74
2023/07/01 06:15:58;;;;;;;16.27;9.65;;;;;;;16.91;100.00;100482.16;6114704;19;20078;-75
2023/07/01 06:18:03;;;;;;;19.90;9.75;;;;;;;16.87;100.00;100483.31;6116312;19;20021;-75
2023/07/01 06:20:10;;;;;;;18.73;10.63;;;;;;;16.90;100.00;100488.41;6115887;19;20022;-75
2023/07/01 06:22:15;;;;;;;17.75;8.88;;;;;;;16.87;100.00;100484.16;6116236;19;20054;-73
2023/07/01 06:24:20;;;;;;;16.63;9.57;;;;;;;16.88;100.00;100477.06;6117197;19;20023;-74
2023/07/01 06:26:25;;;;;;;19.70;10.07;;;;;;;16.93;100.00;100477.59;6115934;19;20014;-73
2023/07/01 06:28:34;;;;;;;17.02;10.02;;;;;;;16.91;100.00;100482.16;6115365;19;20353;-75
2023/07/01 06:30:43;;;;;;;16.38;9.65;;;;;;;16.86;100.00;100476.31;6115628;19;20006;-75
2023/07/01 06:32:48;;;;;;;17.65;9.23;;;;;;;16.91;100.00;100484.81;6115677;19;20054;-74
2023/07/01 06:34:56;;;;;;;16.15;9.15;;;;;;;16.95;100.00;100480.09;6115231;19;20010;-73
2023/07/01 06:37:03;;;;;;;19.38;8.52;;;;;;;16.91;100.00;100484.81;6113968;19;20096;-75
2023/07/01 06:39:08;;;;;;;17.35;9.63;;;;;;;16.95;100.00;100475.63;6114340;19;20002;-75
2023/07/01 06:41:14;;;;;;;15.45;8.60;;;;;;;17.02;100.00;100482.19;6113617;19;20014;-76
2023/07/01 06:43:19;;;;;;;15.68;8.70;;;;;;;17.03;100.00;100473.25;6114115;19;20020;-73
2023/07/01 06:45:24;;;;;;;15.57;9.55;;;;;;;17.09;100.00;100485.28;6115128;19;20529;-73
2023/07/01 06:47:35;;;;;;;13.75;8.80;;;;;;;17.18;100.00;100483.75;6113702;19;20007;-74
2023/07/01 06:49:40;;;;;;;16.88;9.38;;;;;;;17.20;100.00;100479.16;6113929;19;20015;-75
2023/07/01 06:51:46;;;;;;;17.13;9.15;;;;;;;17.29;100.00;100476.66;6104586;19;20577;-74
2023/07/01 06:53:50;;;;;;;11.93;7.70;;;;;;;17.21;100.00;100476.38;6113456;19;20015;-75
2023/07/01 06:55:55;;;;;;;16.15;8.60;;;;;;;17.31;100.00;100473.91;6114264;19;20010;-74
2023/07/01 06:58:03;;;;;;;13.20;8.48;;;;;;;17.34;100.00;100469.19;6112369;19;20030;-75
2023/07/01 07:00:12;;;;;;;13.15;8.32;;;;;;;17.37;100.00;100470.78;6112941;19;20014;-75
2023/07/01 07:02:17;;;;;;;12.95;7.88;;;;;;;17.40;100.00;100464.38;6112997;19;20019;-75
2023/07/01 07:04:29;;;;;;;15.15;7.70;;;;;;;17.32;100.00;100468.47;6113768;19;20368;-74
2023/07/01 07:06:34;;;;;;;12.27;7.38;;;;;;;17.29;100.00;100466.03;6113914;19;20019;-75
2023/07/01 07:08:39;;;;;;;13.05;7.63;;;;;;;17.34;100.00;100461.22;6114040;19;20384;-75
2023/07/01 07:10:47;;;;;;;12.00;7.97;;;;;;;17.31;100.00;100460.63;6113413;19;20002;-74
2023/07/01 07:12:52;;;;;;;12.35;7.50;;;;;;;17.36;100.00;100468.25;6113002;19;20015;-74
2023/07/01 07:14:59;;;;;;;11.77;7.35;;;;;;;17.36;100.00;100463.78;6113470;19;20438;-73
2023/07/01 07:17:05;;;;;;;11.40;6.82;;;;;;;17.36;100.00;100462.94;6112603;19;20018;-74
2023/07/01 07:19:10;;;;;;;9.95;6.28;;;;;;;17.41;100.00;100463.44;6113122;19;19998;-74
2023/07/01 07:21:18;;;;;;;10.02;6.10;;;;;;;17.47;100.00;100463.81;6112608;19;20010;-74
2023/07/01 07:23:23;;;;;;;8.25;5.18;;;;;;;17.55;100.00;100463.22;6107444;19;20022;-75
2023/07/01 07:25:28;;;;;;;10.02;4.85;;;;;;;17.47;100.00;100460.31;6113461;19;20014;-75
2023/07/01 07:27:34;;;;;;;8.35;4.85;;;;;;;17.43;100.00;100464.16;6113172;19;20022;-75
2023/07/01 07:29:40;;;;;;;7.00;4.53;;;;;;;17.50;100.00;100455.59;6112773;19;20027;-75
2023/07/01 07:31:47;;;;;;;8.35;5.05;;;;;;;17.56;100.00;100464.91;6109950;19;20040;-75
2023/07/01 07:33:53;;;;;;;6.60;3.85;;;;;;;17.55;100.00;100469.38;6113941;19;20019;-75
2023/07/01 07:36:02;;;;;;;9.52;4.82;;;;;;;17.65;100.00;100463.41;6111567;19;20081;-74
2023/07/01 07:38:10;;;;;;;9.10;4.70;;;;;;;17.57;100.00;100463.13;6113284;19;20460;-74
2023/07/01 07:40:15;;;;;;;8.20;5.13;;;;;;;17.66;100.00;100465.06;6112502;19;20010;-75
2023/07/01 07:42:20;;;;;;;7.57;4.25;;;;;;;17.69;100.00;100460.41;6111109;19;20475;-75
2023/07/01 07:44:28;;;;;;;7.70;4.00;;;;;;;17.72;100.00;100456.63;6110741;19;20341;-74
2023/07/01 07:46:34;;;;;;;8.13;4.18;;;;;;;17.75;100.00;100454.59;6112788;19;20006;-75
2023/07/01 07:48:39;;;;;;;13.13;4.75;;;;;;;17.83;100.00;100456.69;6112828;19;20444;-76
2023/07/01 07:50:48;;;;;;;7.70;3.97;;;;;;;17.84;100.00;100461.03;6114331;19;20462;-74
2023/07/01 07:52:53;;;;;;;7.68;3.78;;;;;;;17.90;100.00;100465.03;6110088;19;20013;-75
2023/07/01 07:55:02;;;;;;;6.18;3.33;;;;;;;17.79;100.00;100452.56;6112786;19;19998;-75
2023/07/01 07:57:07;;;;;;;6.03;3.15;;;;;;;17.85;100.00;100459.22;6112112;19;20097;-76
2023/07/01 07:59:13;;;;;;;7.32;3.67;;;;;;;17.89;100.00;100458.88;6112998;19;20025;-74
2023/07/01 08:01:18;;;;;;;9.45;3.75;;;;;;;17.95;100.00;100454.88;6112258;19;20078;-75
2023/07/01 08:03:25;;;;;;;6.47;3.50;;;;;;;17.98;100.00;100462.63;6112268;19;20065;-74
2023/07/01 08:05:31;;;;;;;6.28;3.53;;;;;;;18.06;100.00;100454.06;6113865;19;20070;-74
2023/07/01 08:07:36;;;;;;;6.30;3.60;;;;;;;18.21;100.00;100456.34;6109240;19;20083;-76
2023/07/01 08:09:43;;;;;;;8.57;3.58;;;;;;;18.08;100.00;100455.63;6110097;19;20014;-74
2023/07/01 08:11:50;;;;;;;8.93;4.28;;;;;;;18.15;100.00;100454.19;6113371;19;20034;-76
2023/07/01 08:13:56;;;;;;;7.70;4.25;;;;;;;18.16;100.00;100455.88;6113105;19;20014;-75
2023/07/01 08:16:04;;;;;;;6.57;4.10;;;;;;;18.22;100.00;100449.25;6109980;19;20097;-75
2023/07/01 08:18:10;;;;;;;7.45;3.97;;;;;;;18.09;100.00;100452.03;6111114;19;20062;-75
2023/07/01 08:20:15;;;;;;;6.38;3.80;;;;;;;18.13;100.00;100453.47;6112410;19;20066;-74
2023/07/01 08:22:20;;;;;;;6.53;3.78;;;;;;;18.14;100.00;100454.28;6111248;19;20022;-74
2023/07/01 08:24:26;;;;;;;6.18;3.58;;;;;;;18.14;100.00;100446.31;6111630;19;20018;-74
2023/07/01 08:26:34;;;;;;;7.75;3.50;;;;;;;18.11;100.00;100452.72;6112259;19;20103;-73
2023/07/01 08:28:41;;;;;;;6.15;3.10;;;;;;;18.14;100.00;100454.28;6111990;19;20023;-76
2023/07/01 08:30:46;;;;;;;5.50;3.13;;;;;;;18.15;100.00;100458.66;6111745;19;20090;-75
2023/07/01 08:32:52;;;;;;;7.20;2.95;;;;;;;18.16;100.00;100455.03;6111592;19;20023;-75
2023/07/01 08:34:58;;;;;;;5.30;2.90;;;;;;;18.11;100.00;100452.72;6112192;19;20026;-75
2023/07/01 08:37:03;;;;;;;5.53;2.88;;;;;;;18.25;100.00;100453.47;6110021;19;20052;-75
2023/07/01 08:39:10;;;;;;;4.88;2.30;;;;;;;18.29;100.00;100449.59;6112075;19;20015;-75
2023/07/01 08:41:17;;;;;;;3.90;2.03;;;;;;;18.25;100.00;100456.16;6113285;19;20490;-74
2023/07/01 08:43:26;;;;;;;2.42;1.73;;;;;;;18.29;100.00;100450.44;6111446;19;20050;-76
2023/07/01 08:45:37;;;;;;;3.60;1.88;;;;;;;18.36;100.00;100450.81;6111229;19;20391;-76
2023/07/01 08:47:47;;;;;;;2.72;1.80;;;;;;;18.25;100.00;100456.16;6107677;19;20371;-75
2023/07/01 08:49:57;;;;;;;3.03;2.00;;;;;;;18.36;100.00;100459.63;6109648;19;20393;-75
2023/07/01 08:52:08;;;;;;;2.97;1.80;;;;;;;18.36;100.00;100453.47;6113189;19;20010;-76
2023/07/01 08:54:13;;;;;;;2.75;1.80;;;;;;;18.28;100.00;100451.41;6111474;19;20018;-75
2023/07/01 08:56:22;;;;;;;2.92;2.00;;;;;;;18.33;100.00;100454.56;6110595;19;20071;-75
2023/07/01 08:58:32;;;;;;;4.20;2.33;;;;;;;18.27;100.00;100454.19;6111092;19;20049;-75
2023/07/01 09:00:40;;;;;;;4.00;2.30;;;;;;;18.43;100.00;100466.16;6112078;19;20075;-76
2023/07/01 09:02:47;;;;;;;7.22;2.53;;;;;;;18.41;100.00;100454.78;6112075;19;20003;-76
2023/07/01 09:04:52;;;;;;;6.10;3.22;;;;;;;18.37;100.00;100463.97;6119437;19;20015;-76
2023/07/01 09:06:59;;;;;;;6.53;2.90;;;;;;;18.34;100.00;100466.03;6116303;19;20484;-76
2023/07/01 09:09:05;;;;;;;5.30;2.72;;;;;;;18.42;100.00;100463.63;6117713;19;20015;-74
2023/07/01 09:11:14;;;;;;;7.85;3.55;;;;;;;18.42;100.00;100458.28;6118376;19;20007;-76
2023/07/01 09:13:21;;;;;;;8.27;4.22;;;;;;;18.52;100.00;100456.59;6115985;19;20021;-75
2023/07/01 09:15:26;;;;;;;7.97;3.85;;;;;;;18.52;100.00;100458.41;6119055;19;20023;-73
2023/07/01 09:17:39;;;;;;;8.18;4.20;;;;;;;18.48;100.00;100465.78;6120928;19;20006;-75
2023/07/01 09:19:52;;;;;;;8.13;4.50;;;;;;;18.25;100.00;100466.78;6119571;19;20014;-75
2023/07/01 09:22:10;;;;;;;12.07;5.53;;;;;;;18.37;100.00;100471.13;6118374;19;20470;-74
2023/07/01 09:24:17;;;;;;;10.50;5.05;;;;;;;18.45;100.00;100462.53;6118721;19;20341;-75
2023/07/01 09:26:22;;;;;;;14.07;5.35;;;;;;;18.47;100.00;100460.59;6119672;19;20018;-74
2023/07/01 09:28:33;;;;;;;12.45;6.43;;;;;;;18.45;100.00;100465.19;6118657;19;20011;-74
2023/07/01 09:30:39;;;;;;;14.40;6.43;;;;;;;18.33;100.00;100459.88;6118620;19;20432;-77
2023/07/01 09:32:47;;;;;;;13.73;6.03;;;;;;;18.41;100.00;100465.44;6120403;19;20083;-76
2023/07/01 09:34:57;;;;;;;13.05;5.68;;;;;;;18.47;100.00;100461.44;6118495;19;20011;-73
2023/07/01 09:37:18;;;;;;;11.27;6.30;;;;;;;18.25;100.00;100462.31;6119513;19;20017;-75
2023/07/01 09:39:37;;;;;;;12.98;6.25;;;;;;;18.29;100.00;100465.56;6118534;19;20520;-75